sensor_id;sensor_type;location;lat;lon;timestamp;P1;durP1;ratioP1;P2;durP2;ratioP2
84084;SDS011;74175;41.730;44.734;2023-11-19T00:00:34;5.32;;;1.98;;
84084;SDS011;74175;41.730;44.734;2023-11-19T00:03:03;5.00;;;2.07;;
84084;SDS011;74175;41.730;44.734;2023-11-19T00:05:29;6.25;;;2.33;;
84084;SDS011;74175;41.730;44.734;2023-11-19T00:07:55;7.75;;;2.50;;
84084;SDS011;74175;41.730;44.734;2023-11-19T00:10:23;5.50;;;1.90;;
84084;SDS011;74175;41.730;44.734;2023-11-19T00:12:49;6.75;;;2.22;;
84084;SDS011;74175;41.730;44.734;2023-11-19T00:15:16;6.32;;;2.20;;
84084;SDS011;74175;41.730;44.734;2023-11-19T00:17:47;6.47;;;1.70;;
84084;SDS011;74175;41.730;44.734;2023-11-19T00:20:14;9.10;;;3.53;;
84084;SDS011;74175;41.730;44.734;2023-11-19T00:22:41;8.77;;;2.70;;
84084;SDS011;74175;41.730;44.734;2023-11-19T00:25:08;7.43;;;2.25;;
84084;SDS011;74175;41.730;44.734;2023-11-19T00:27:38;4.25;;;1.55;;
84084;SDS011;74175;41.730;44.734;2023-11-19T00:30:05;6.10;;;1.57;;
84084;SDS011;74175;41.730;44.734;2023-11-19T00:32:33;5.80;;;1.95;;
84084;SDS011;74175;41.730;44.734;2023-11-19T00:34:59;5.50;;;2.15;;
84084;SDS011;74175;41.730;44.734;2023-11-19T00:37:26;4.88;;;1.90;;
84084;SDS011;74175;41.730;44.734;2023-11-19T00:39:52;4.60;;;1.60;;
84084;SDS011;74175;41.730;44.734;2023-11-19T00:42:18;5.03;;;1.20;;
84084;SDS011;74175;41.730;44.734;2023-11-19T00:44:44;6.78;;;2.30;;
84084;SDS011;74175;41.730;44.734;2023-11-19T00:47:12;4.82;;;1.95;;
84084;SDS011;74175;41.730;44.734;2023-11-19T00:49:38;5.57;;;2.08;;
84084;SDS011;74175;41.730;44.734;2023-11-19T00:52:04;4.85;;;1.58;;
84084;SDS011;74175;41.730;44.734;2023-11-19T00:54:32;4.20;;;1.90;;
84084;SDS011;74175;41.730;44.734;2023-11-19T00:56:58;5.73;;;2.00;;
84084;SDS011;74175;41.730;44.734;2023-11-19T00:59:24;6.25;;;1.92;;
84084;SDS011;74175;41.730;44.734;2023-11-19T01:01:50;5.82;;;1.60;;
84084;SDS011;74175;41.730;44.734;2023-11-19T01:04:16;5.70;;;1.80;;
84084;SDS011;74175;41.730;44.734;2023-11-19T01:06:43;5.10;;;1.98;;
84084;SDS011;74175;41.730;44.734;2023-11-19T01:09:09;6.47;;;2.10;;
84084;SDS011;74175;41.730;44.734;2023-11-19T01:11:35;5.78;;;2.42;;
84084;SDS011;74175;41.730;44.734;2023-11-19T01:14:01;6.63;;;2.30;;
84084;SDS011;74175;41.730;44.734;2023-11-19T01:16:27;4.82;;;1.63;;
84084;SDS011;74175;41.730;44.734;2023-11-19T01:18:53;5.88;;;2.20;;
84084;SDS011;74175;41.730;44.734;2023-11-19T01:21:19;4.95;;;1.70;;
84084;SDS011;74175;41.730;44.734;2023-11-19T01:23:45;4.47;;;1.60;;
84084;SDS011;74175;41.730;44.734;2023-11-19T01:26:12;4.70;;;1.90;;
84084;SDS011;74175;41.730;44.734;2023-11-19T01:28:38;4.78;;;1.73;;
84084;SDS011;74175;41.730;44.734;2023-11-19T01:31:05;6.63;;;2.28;;
84084;SDS011;74175;41.730;44.734;2023-11-19T01:33:38;5.05;;;1.75;;
84084;SDS011;74175;41.730;44.734;2023-11-19T01:36:05;5.93;;;2.20;;
84084;SDS011;74175;41.730;44.734;2023-11-19T01:38:34;5.30;;;1.80;;
84084;SDS011;74175;41.730;44.734;2023-11-19T01:41:01;4.40;;;1.43;;
84084;SDS011;74175;41.730;44.734;2023-11-19T01:45:59;6.80;;;1.83;;
84084;SDS011;74175;41.730;44.734;2023-11-19T01:48:25;4.57;;;1.58;;
84084;SDS011;74175;41.730;44.734;2023-11-19T01:50:51;8.18;;;1.70;;
84084;SDS011;74175;41.730;44.734;2023-11-19T01:53:19;4.72;;;1.50;;
84084;SDS011;74175;41.730;44.734;2023-11-19T01:55:46;3.90;;;1.27;;
84084;SDS011;74175;41.730;44.734;2023-11-19T01:58:13;4.77;;;1.20;;
84084;SDS011;74175;41.730;44.734;2023-11-19T02:00:39;5.10;;;1.30;;
84084;SDS011;74175;41.730;44.734;2023-11-19T02:03:05;4.50;;;1.70;;
84084;SDS011;74175;41.730;44.734;2023-11-19T02:05:35;4.55;;;1.45;;
84084;SDS011;74175;41.730;44.734;2023-11-19T02:08:01;4.95;;;1.38;;
84084;SDS011;74175;41.730;44.734;2023-11-19T02:10:28;3.97;;;1.02;;
84084;SDS011;74175;41.730;44.734;2023-11-19T02:12:54;4.13;;;1.43;;
84084;SDS011;74175;41.730;44.734;2023-11-19T02:15:21;4.80;;;1.75;;
84084;SDS011;74175;41.730;44.734;2023-11-19T02:17:53;3.88;;;1.30;;
84084;SDS011;74175;41.730;44.734;2023-11-19T02:20:20;4.50;;;1.33;;
84084;SDS011;74175;41.730;44.734;2023-11-19T02:22:49;3.78;;;1.20;;
84084;SDS011;74175;41.730;44.734;2023-11-19T02:25:22;6.80;;;1.30;;
84084;SDS011;74175;41.730;44.734;2023-11-19T02:27:53;3.17;;;0.85;;
84084;SDS011;74175;41.730;44.734;2023-11-19T02:30:23;5.55;;;1.00;;
84084;SDS011;74175;41.730;44.734;2023-11-19T02:32:57;3.65;;;1.05;;
84084;SDS011;74175;41.730;44.734;2023-11-19T02:35:24;3.78;;;0.90;;
84084;SDS011;74175;41.730;44.734;2023-11-19T02:37:51;4.18;;;1.10;;
84084;SDS011;74175;41.730;44.734;2023-11-19T02:40:17;3.90;;;1.10;;
84084;SDS011;74175;41.730;44.734;2023-11-19T02:42:44;4.03;;;1.02;;
84084;SDS011;74175;41.730;44.734;2023-11-19T02:45:10;3.40;;;0.90;;
84084;SDS011;74175;41.730;44.734;2023-11-19T02:47:42;3.30;;;1.10;;
84084;SDS011;74175;41.730;44.734;2023-11-19T02:50:10;3.92;;;1.20;;
84084;SDS011;74175;41.730;44.734;2023-11-19T02:52:43;4.30;;;1.10;;
84084;SDS011;74175;41.730;44.734;2023-11-19T02:55:11;4.03;;;1.30;;
84084;SDS011;74175;41.730;44.734;2023-11-19T02:57:41;3.20;;;1.00;;
84084;SDS011;74175;41.730;44.734;2023-11-19T03:00:21;3.50;;;1.00;;
84084;SDS011;74175;41.730;44.734;2023-11-19T03:03:11;4.10;;;1.00;;
84084;SDS011;74175;41.730;44.734;2023-11-19T03:05:46;4.00;;;1.20;;
84084;SDS011;74175;41.730;44.734;2023-11-19T03:08:13;4.73;;;1.40;;
84084;SDS011;74175;41.730;44.734;2023-11-19T03:10:39;4.97;;;1.50;;
84084;SDS011;74175;41.730;44.734;2023-11-19T03:13:05;4.10;;;1.15;;
84084;SDS011;74175;41.730;44.734;2023-11-19T03:15:38;3.97;;;1.10;;
84084;SDS011;74175;41.730;44.734;2023-11-19T03:18:04;3.83;;;1.23;;
84084;SDS011;74175;41.730;44.734;2023-11-19T03:20:30;3.88;;;1.15;;
84084;SDS011;74175;41.730;44.734;2023-11-19T03:22:56;5.13;;;1.67;;
84084;SDS011;74175;41.730;44.734;2023-11-19T03:25:29;3.65;;;1.20;;
84084;SDS011;74175;41.730;44.734;2023-11-19T03:28:02;4.72;;;1.35;;
84084;SDS011;74175;41.730;44.734;2023-11-19T03:30:29;4.18;;;1.30;;
84084;SDS011;74175;41.730;44.734;2023-11-19T03:32:56;4.68;;;1.45;;
84084;SDS011;74175;41.730;44.734;2023-11-19T03:35:23;4.22;;;1.30;;
84084;SDS011;74175;41.730;44.734;2023-11-19T03:37:51;4.47;;;1.30;;
84084;SDS011;74175;41.730;44.734;2023-11-19T03:40:17;5.57;;;1.48;;
84084;SDS011;74175;41.730;44.734;2023-11-19T03:42:48;3.70;;;1.17;;
84084;SDS011;74175;41.730;44.734;2023-11-19T03:45:14;4.63;;;1.20;;
84084;SDS011;74175;41.730;44.734;2023-11-19T03:47:41;4.78;;;1.00;;
84084;SDS011;74175;41.730;44.734;2023-11-19T03:50:08;3.88;;;1.10;;
84084;SDS011;74175;41.730;44.734;2023-11-19T03:52:35;4.07;;;0.73;;
84084;SDS011;74175;41.730;44.734;2023-11-19T03:55:02;3.63;;;0.93;;
84084;SDS011;74175;41.730;44.734;2023-11-19T03:57:31;4.05;;;0.70;;
84084;SDS011;74175;41.730;44.734;2023-11-19T03:59:57;3.03;;;0.80;;
84084;SDS011;74175;41.730;44.734;2023-11-19T04:02:26;3.63;;;1.00;;
84084;SDS011;74175;41.730;44.734;2023-11-19T04:04:56;5.03;;;1.38;;
84084;SDS011;74175;41.730;44.734;2023-11-19T04:07:22;5.05;;;1.33;;
84084;SDS011;74175;41.730;44.734;2023-11-19T04:09:48;3.97;;;1.20;;
84084;SDS011;74175;41.730;44.734;2023-11-19T04:12:14;5.72;;;1.25;;
84084;SDS011;74175;41.730;44.734;2023-11-19T04:14:40;5.88;;;1.30;;
84084;SDS011;74175;41.730;44.734;2023-11-19T04:17:06;3.53;;;1.10;;
84084;SDS011;74175;41.730;44.734;2023-11-19T04:19:33;3.85;;;1.20;;
84084;SDS011;74175;41.730;44.734;2023-11-19T04:21:59;4.43;;;1.30;;
84084;SDS011;74175;41.730;44.734;2023-11-19T04:24:25;4.50;;;1.20;;
84084;SDS011;74175;41.730;44.734;2023-11-19T04:26:52;4.43;;;1.58;;
84084;SDS011;74175;41.730;44.734;2023-11-19T04:29:18;4.68;;;1.25;;
84084;SDS011;74175;41.730;44.734;2023-11-19T04:31:45;5.45;;;2.05;;
84084;SDS011;74175;41.730;44.734;2023-11-19T04:34:11;5.00;;;1.77;;
84084;SDS011;74175;41.730;44.734;2023-11-19T04:36:38;5.47;;;2.00;;
84084;SDS011;74175;41.730;44.734;2023-11-19T04:39:04;5.30;;;1.80;;
84084;SDS011;74175;41.730;44.734;2023-11-19T04:41:35;6.20;;;1.37;;
84084;SDS011;74175;41.730;44.734;2023-11-19T04:44:13;5.28;;;1.80;;
84084;SDS011;74175;41.730;44.734;2023-11-19T04:46:39;8.50;;;2.63;;
84084;SDS011;74175;41.730;44.734;2023-11-19T04:49:05;5.60;;;2.05;;
84084;SDS011;74175;41.730;44.734;2023-11-19T04:51:31;7.18;;;2.15;;
84084;SDS011;74175;41.730;44.734;2023-11-19T04:54:04;5.65;;;1.63;;
84084;SDS011;74175;41.730;44.734;2023-11-19T04:56:30;6.35;;;2.08;;
84084;SDS011;74175;41.730;44.734;2023-11-19T04:58:57;9.35;;;2.83;;
84084;SDS011;74175;41.730;44.734;2023-11-19T05:01:23;6.70;;;2.43;;
84084;SDS011;74175;41.730;44.734;2023-11-19T05:03:49;8.02;;;3.05;;
84084;SDS011;74175;41.730;44.734;2023-11-19T05:06:17;6.57;;;2.42;;
84084;SDS011;74175;41.730;44.734;2023-11-19T05:08:43;8.70;;;2.67;;
84084;SDS011;74175;41.730;44.734;2023-11-19T05:11:10;6.45;;;2.55;;
84084;SDS011;74175;41.730;44.734;2023-11-19T05:13:38;5.30;;;2.00;;
84084;SDS011;74175;41.730;44.734;2023-11-19T05:16:04;6.00;;;1.80;;
84084;SDS011;74175;41.730;44.734;2023-11-19T05:18:30;6.13;;;1.73;;
84084;SDS011;74175;41.730;44.734;2023-11-19T05:20:56;6.00;;;2.22;;
84084;SDS011;74175;41.730;44.734;2023-11-19T05:23:22;6.45;;;2.30;;
84084;SDS011;74175;41.730;44.734;2023-11-19T05:25:48;5.88;;;2.15;;
84084;SDS011;74175;41.730;44.734;2023-11-19T05:28:14;6.22;;;2.42;;
84084;SDS011;74175;41.730;44.734;2023-11-19T05:30:42;5.88;;;2.30;;
84084;SDS011;74175;41.730;44.734;2023-11-19T05:33:08;5.22;;;2.10;;
84084;SDS011;74175;41.730;44.734;2023-11-19T05:35:35;6.80;;;1.98;;
84084;SDS011;74175;41.730;44.734;2023-11-19T05:38:01;6.70;;;1.83;;
84084;SDS011;74175;41.730;44.734;2023-11-19T05:40:28;5.85;;;1.65;;
84084;SDS011;74175;41.730;44.734;2023-11-19T05:42:54;5.25;;;1.65;;
84084;SDS011;74175;41.730;44.734;2023-11-19T05:45:20;5.07;;;1.85;;
84084;SDS011;74175;41.730;44.734;2023-11-19T05:47:49;5.50;;;1.98;;
84084;SDS011;74175;41.730;44.734;2023-11-19T05:50:17;8.77;;;2.95;;
84084;SDS011;74175;41.730;44.734;2023-11-19T05:52:44;7.43;;;2.83;;
84084;SDS011;74175;41.730;44.734;2023-11-19T05:55:10;8.40;;;2.87;;
84084;SDS011;74175;41.730;44.734;2023-11-19T05:57:37;8.27;;;3.10;;
84084;SDS011;74175;41.730;44.734;2023-11-19T06:00:03;7.07;;;3.10;;
84084;SDS011;74175;41.730;44.734;2023-11-19T06:02:37;6.75;;;2.60;;
84084;SDS011;74175;41.730;44.734;2023-11-19T06:05:04;7.03;;;2.88;;
84084;SDS011;74175;41.730;44.734;2023-11-19T06:07:33;7.57;;;3.10;;
84084;SDS011;74175;41.730;44.734;2023-11-19T06:10:01;7.43;;;2.72;;
84084;SDS011;74175;41.730;44.734;2023-11-19T06:12:28;8.27;;;3.20;;
84084;SDS011;74175;41.730;44.734;2023-11-19T06:14:54;8.02;;;2.92;;
84084;SDS011;74175;41.730;44.734;2023-11-19T06:17:20;7.20;;;2.90;;
84084;SDS011;74175;41.730;44.734;2023-11-19T06:19:46;5.93;;;2.95;;
84084;SDS011;74175;41.730;44.734;2023-11-19T06:22:12;8.30;;;3.28;;
84084;SDS011;74175;41.730;44.734;2023-11-19T06:24:39;6.97;;;3.13;;
84084;SDS011;74175;41.730;44.734;2023-11-19T06:27:05;6.53;;;2.60;;
84084;SDS011;74175;41.730;44.734;2023-11-19T06:29:31;11.10;;;4.15;;
84084;SDS011;74175;41.730;44.734;2023-11-19T06:31:57;8.33;;;2.90;;
84084;SDS011;74175;41.730;44.734;2023-11-19T06:34:26;7.15;;;2.10;;
84084;SDS011;74175;41.730;44.734;2023-11-19T06:36:52;7.82;;;3.10;;
84084;SDS011;74175;41.730;44.734;2023-11-19T06:39:27;8.98;;;2.42;;
84084;SDS011;74175;41.730;44.734;2023-11-19T06:42:14;8.15;;;2.90;;
84084;SDS011;74175;41.730;44.734;2023-11-19T06:44:40;7.93;;;3.13;;
84084;SDS011;74175;41.730;44.734;2023-11-19T06:47:14;10.57;;;3.70;;
84084;SDS011;74175;41.730;44.734;2023-11-19T06:49:43;10.50;;;3.63;;
84084;SDS011;74175;41.730;44.734;2023-11-19T06:52:10;8.23;;;3.47;;
84084;SDS011;74175;41.730;44.734;2023-11-19T06:54:37;9.52;;;3.25;;
84084;SDS011;74175;41.730;44.734;2023-11-19T06:57:04;10.57;;;3.40;;
84084;SDS011;74175;41.730;44.734;2023-11-19T06:59:34;10.68;;;4.05;;
84084;SDS011;74175;41.730;44.734;2023-11-19T07:02:01;10.63;;;3.97;;
84084;SDS011;74175;41.730;44.734;2023-11-19T07:04:27;9.55;;;3.63;;
84084;SDS011;74175;41.730;44.734;2023-11-19T07:06:53;10.10;;;3.47;;
84084;SDS011;74175;41.730;44.734;2023-11-19T07:09:19;6.63;;;3.40;;
84084;SDS011;74175;41.730;44.734;2023-11-19T07:11:46;10.63;;;4.50;;
84084;SDS011;74175;41.730;44.734;2023-11-19T07:14:13;13.50;;;5.65;;
84084;SDS011;74175;41.730;44.734;2023-11-19T07:16:39;11.93;;;6.00;;
84084;SDS011;74175;41.730;44.734;2023-11-19T07:19:05;10.38;;;4.45;;
84084;SDS011;74175;41.730;44.734;2023-11-19T07:21:32;10.23;;;4.13;;
84084;SDS011;74175;41.730;44.734;2023-11-19T07:24:03;10.93;;;4.05;;
84084;SDS011;74175;41.730;44.734;2023-11-19T07:26:30;9.30;;;3.80;;
84084;SDS011;74175;41.730;44.734;2023-11-19T07:28:56;9.45;;;3.58;;
84084;SDS011;74175;41.730;44.734;2023-11-19T07:31:22;9.75;;;3.78;;
84084;SDS011;74175;41.730;44.734;2023-11-19T07:33:49;13.80;;;4.47;;
84084;SDS011;74175;41.730;44.734;2023-11-19T07:36:15;13.13;;;6.07;;
84084;SDS011;74175;41.730;44.734;2023-11-19T07:38:42;11.63;;;5.80;;
84084;SDS011;74175;41.730;44.734;2023-11-19T07:41:08;10.40;;;4.30;;
84084;SDS011;74175;41.730;44.734;2023-11-19T07:43:44;10.98;;;4.07;;
84084;SDS011;74175;41.730;44.734;2023-11-19T07:46:11;14.18;;;5.28;;
84084;SDS011;74175;41.730;44.734;2023-11-19T07:48:40;12.35;;;5.82;;
84084;SDS011;74175;41.730;44.734;2023-11-19T07:51:07;13.07;;;4.93;;
84084;SDS011;74175;41.730;44.734;2023-11-19T07:53:34;11.70;;;5.82;;
84084;SDS011;74175;41.730;44.734;2023-11-19T07:56:00;20.80;;;10.80;;
84084;SDS011;74175;41.730;44.734;2023-11-19T07:58:27;18.42;;;8.73;;
84084;SDS011;74175;41.730;44.734;2023-11-19T08:00:53;15.30;;;7.43;;
84084;SDS011;74175;41.730;44.734;2023-11-19T08:03:19;13.88;;;6.15;;
84084;SDS011;74175;41.730;44.734;2023-11-19T08:05:54;12.93;;;6.05;;
84084;SDS011;74175;41.730;44.734;2023-11-19T08:08:22;14.25;;;5.85;;
84084;SDS011;74175;41.730;44.734;2023-11-19T08:10:48;11.80;;;4.60;;
84084;SDS011;74175;41.730;44.734;2023-11-19T08:13:14;15.18;;;6.63;;
84084;SDS011;74175;41.730;44.734;2023-11-19T08:15:41;11.32;;;4.93;;
84084;SDS011;74175;41.730;44.734;2023-11-19T08:18:08;11.88;;;5.95;;
84084;SDS011;74175;41.730;44.734;2023-11-19T08:20:34;13.30;;;6.15;;
84084;SDS011;74175;41.730;44.734;2023-11-19T08:23:02;13.97;;;5.97;;
84084;SDS011;74175;41.730;44.734;2023-11-19T08:25:29;14.10;;;6.30;;
84084;SDS011;74175;41.730;44.734;2023-11-19T08:27:55;14.40;;;6.25;;
84084;SDS011;74175;41.730;44.734;2023-11-19T08:30:21;12.75;;;6.68;;
84084;SDS011;74175;41.730;44.734;2023-11-19T08:32:47;21.05;;;8.85;;
84084;SDS011;74175;41.730;44.734;2023-11-19T08:35:13;14.60;;;7.70;;
84084;SDS011;74175;41.730;44.734;2023-11-19T08:37:41;15.20;;;6.83;;
84084;SDS011;74175;41.730;44.734;2023-11-19T08:40:08;12.87;;;6.30;;
84084;SDS011;74175;41.730;44.734;2023-11-19T08:42:35;13.95;;;6.57;;
84084;SDS011;74175;41.730;44.734;2023-11-19T08:45:01;18.25;;;7.13;;
84084;SDS011;74175;41.730;44.734;2023-11-19T08:47:28;20.35;;;8.50;;
84084;SDS011;74175;41.730;44.734;2023-11-19T08:49:54;17.13;;;7.78;;
84084;SDS011;74175;41.730;44.734;2023-11-19T08:52:20;16.25;;;7.88;;
84084;SDS011;74175;41.730;44.734;2023-11-19T08:54:46;16.77;;;8.13;;
84084;SDS011;74175;41.730;44.734;2023-11-19T08:57:13;15.87;;;8.40;;
84084;SDS011;74175;41.730;44.734;2023-11-19T08:59:39;17.50;;;8.83;;
84084;SDS011;74175;41.730;44.734;2023-11-19T09:02:05;17.77;;;7.82;;
84084;SDS011;74175;41.730;44.734;2023-11-19T09:04:32;17.83;;;8.65;;
84084;SDS011;74175;41.730;44.734;2023-11-19T09:06:59;13.93;;;6.20;;
84084;SDS011;74175;41.730;44.734;2023-11-19T09:09:25;16.98;;;8.27;;
84084;SDS011;74175;41.730;44.734;2023-11-19T09:11:51;13.27;;;6.40;;
84084;SDS011;74175;41.730;44.734;2023-11-19T09:14:17;13.68;;;6.88;;
84084;SDS011;74175;41.730;44.734;2023-11-19T09:16:51;12.35;;;6.25;;
84084;SDS011;74175;41.730;44.734;2023-11-19T09:19:18;15.95;;;6.53;;
84084;SDS011;74175;41.730;44.734;2023-11-19T09:21:44;14.23;;;6.50;;
84084;SDS011;74175;41.730;44.734;2023-11-19T09:24:10;12.80;;;7.13;;
84084;SDS011;74175;41.730;44.734;2023-11-19T09:26:37;14.70;;;6.82;;
84084;SDS011;74175;41.730;44.734;2023-11-19T09:29:05;14.80;;;6.47;;
84084;SDS011;74175;41.730;44.734;2023-11-19T09:31:33;15.23;;;6.93;;
84084;SDS011;74175;41.730;44.734;2023-11-19T09:34:00;19.20;;;8.82;;
84084;SDS011;74175;41.730;44.734;2023-11-19T09:36:27;26.58;;;11.93;;
84084;SDS011;74175;41.730;44.734;2023-11-19T09:38:53;20.70;;;8.93;;
84084;SDS011;74175;41.730;44.734;2023-11-19T09:41:19;17.23;;;8.13;;
84084;SDS011;74175;41.730;44.734;2023-11-19T09:43:45;16.17;;;8.15;;
84084;SDS011;74175;41.730;44.734;2023-11-19T09:46:12;16.55;;;7.70;;
84084;SDS011;74175;41.730;44.734;2023-11-19T09:48:39;17.90;;;8.15;;
84084;SDS011;74175;41.730;44.734;2023-11-19T09:51:06;14.93;;;7.27;;
84084;SDS011;74175;41.730;44.734;2023-11-19T09:53:33;20.30;;;9.25;;
84084;SDS011;74175;41.730;44.734;2023-11-19T09:56:02;17.27;;;9.15;;
84084;SDS011;74175;41.730;44.734;2023-11-19T09:58:33;14.73;;;7.93;;
84084;SDS011;74175;41.730;44.734;2023-11-19T10:01:00;14.60;;;6.55;;
84084;SDS011;74175;41.730;44.734;2023-11-19T10:03:33;18.10;;;8.63;;
84084;SDS011;74175;41.730;44.734;2023-11-19T10:09:04;19.23;;;9.27;;
84084;SDS011;74175;41.730;44.734;2023-11-19T10:11:30;17.48;;;9.35;;
84084;SDS011;74175;41.730;44.734;2023-11-19T10:13:57;20.30;;;9.40;;
84084;SDS011;74175;41.730;44.734;2023-11-19T10:16:28;17.80;;;9.60;;
84084;SDS011;74175;41.730;44.734;2023-11-19T10:18:56;17.05;;;8.25;;
84084;SDS011;74175;41.730;44.734;2023-11-19T10:21:22;16.67;;;7.77;;
84084;SDS011;74175;41.730;44.734;2023-11-19T10:23:52;14.40;;;7.68;;
84084;SDS011;74175;41.730;44.734;2023-11-19T10:26:26;17.45;;;8.98;;
84084;SDS011;74175;41.730;44.734;2023-11-19T10:28:53;18.77;;;8.93;;
84084;SDS011;74175;41.730;44.734;2023-11-19T10:31:19;19.77;;;8.57;;
84084;SDS011;74175;41.730;44.734;2023-11-19T10:33:50;18.15;;;10.02;;
84084;SDS011;74175;41.730;44.734;2023-11-19T10:36:17;17.43;;;8.63;;
84084;SDS011;74175;41.730;44.734;2023-11-19T10:38:51;15.70;;;7.15;;
84084;SDS011;74175;41.730;44.734;2023-11-19T10:41:31;16.85;;;8.90;;
84084;SDS011;74175;41.730;44.734;2023-11-19T10:43:58;14.85;;;7.75;;
84084;SDS011;74175;41.730;44.734;2023-11-19T10:46:40;14.18;;;8.02;;
84084;SDS011;74175;41.730;44.734;2023-11-19T10:49:07;17.20;;;8.13;;
84084;SDS011;74175;41.730;44.734;2023-11-19T10:51:37;17.27;;;9.37;;
84084;SDS011;74175;41.730;44.734;2023-11-19T10:54:10;16.05;;;8.48;;
84084;SDS011;74175;41.730;44.734;2023-11-19T10:56:36;19.77;;;8.65;;
84084;SDS011;74175;41.730;44.734;2023-11-19T10:59:03;20.92;;;10.23;;
84084;SDS011;74175;41.730;44.734;2023-11-19T11:01:38;17.08;;;8.38;;
84084;SDS011;74175;41.730;44.734;2023-11-19T11:04:10;14.80;;;7.68;;
84084;SDS011;74175;41.730;44.734;2023-11-19T11:06:43;15.20;;;8.02;;
84084;SDS011;74175;41.730;44.734;2023-11-19T11:09:09;17.83;;;9.33;;
84084;SDS011;74175;41.730;44.734;2023-11-19T11:11:40;20.08;;;11.32;;
84084;SDS011;74175;41.730;44.734;2023-11-19T11:14:06;16.95;;;8.45;;
84084;SDS011;74175;41.730;44.734;2023-11-19T11:16:34;21.00;;;10.48;;
84084;SDS011;74175;41.730;44.734;2023-11-19T11:19:00;16.88;;;9.85;;
84084;SDS011;74175;41.730;44.734;2023-11-19T11:21:27;16.40;;;8.67;;
84084;SDS011;74175;41.730;44.734;2023-11-19T11:23:58;15.70;;;8.87;;
84084;SDS011;74175;41.730;44.734;2023-11-19T11:29:20;17.63;;;8.98;;
84084;SDS011;74175;41.730;44.734;2023-11-19T11:34:50;18.58;;;9.25;;
84084;SDS011;74175;41.730;44.734;2023-11-19T11:39:58;16.90;;;8.37;;
84084;SDS011;74175;41.730;44.734;2023-11-19T11:45:05;21.55;;;9.13;;
84084;SDS011;74175;41.730;44.734;2023-11-19T11:50:09;16.17;;;8.15;;
84084;SDS011;74175;41.730;44.734;2023-11-19T11:55:28;19.10;;;9.38;;
84084;SDS011;74175;41.730;44.734;2023-11-19T11:58:07;18.02;;;8.05;;
84084;SDS011;74175;41.730;44.734;2023-11-19T12:00:40;16.98;;;8.20;;
84084;SDS011;74175;41.730;44.734;2023-11-19T12:03:07;23.20;;;10.07;;
84084;SDS011;74175;41.730;44.734;2023-11-19T12:05:44;17.90;;;9.00;;
84084;SDS011;74175;41.730;44.734;2023-11-19T12:08:12;16.58;;;7.47;;
84084;SDS011;74175;41.730;44.734;2023-11-19T12:10:44;13.20;;;6.72;;
84084;SDS011;74175;41.730;44.734;2023-11-19T12:13:13;15.95;;;8.13;;
84084;SDS011;74175;41.730;44.734;2023-11-19T12:16:25;13.27;;;6.72;;
84084;SDS011;74175;41.730;44.734;2023-11-19T12:18:27;14.55;;;8.20;;
84084;SDS011;74175;41.730;44.734;2023-11-19T12:20:58;21.20;;;8.73;;
84084;SDS011;74175;41.730;44.734;2023-11-19T12:23:28;15.93;;;7.93;;
84084;SDS011;74175;41.730;44.734;2023-11-19T12:25:55;16.30;;;8.48;;
84084;SDS011;74175;41.730;44.734;2023-11-19T12:28:21;13.18;;;6.60;;
84084;SDS011;74175;41.730;44.734;2023-11-19T12:30:49;12.45;;;6.18;;
84084;SDS011;74175;41.730;44.734;2023-11-19T12:33:17;15.27;;;8.05;;
84084;SDS011;74175;41.730;44.734;2023-11-19T12:35:44;15.98;;;8.40;;
84084;SDS011;74175;41.730;44.734;2023-11-19T12:38:20;17.58;;;7.80;;
84084;SDS011;74175;41.730;44.734;2023-11-19T12:40:46;14.77;;;7.10;;
84084;SDS011;74175;41.730;44.734;2023-11-19T12:43:22;17.03;;;8.07;;
84084;SDS011;74175;41.730;44.734;2023-11-19T12:45:48;15.02;;;8.10;;
84084;SDS011;74175;41.730;44.734;2023-11-19T12:48:14;15.48;;;7.65;;
84084;SDS011;74175;41.730;44.734;2023-11-19T12:50:57;15.23;;;7.60;;
84084;SDS011;74175;41.730;44.734;2023-11-19T12:53:24;18.23;;;9.10;;
84084;SDS011;74175;41.730;44.734;2023-11-19T12:55:51;16.95;;;7.70;;
84084;SDS011;74175;41.730;44.734;2023-11-19T12:58:31;14.27;;;6.70;;
84084;SDS011;74175;41.730;44.734;2023-11-19T13:01:04;13.48;;;7.13;;
84084;SDS011;74175;41.730;44.734;2023-11-19T13:06:07;11.10;;;5.43;;
84084;SDS011;74175;41.730;44.734;2023-11-19T13:08:43;10.93;;;5.00;;
84084;SDS011;74175;41.730;44.734;2023-11-19T13:11:11;15.18;;;5.90;;
84084;SDS011;74175;41.730;44.734;2023-11-19T13:16:35;17.35;;;8.70;;
84084;SDS011;74175;41.730;44.734;2023-11-19T13:19:02;20.20;;;9.18;;
84084;SDS011;74175;41.730;44.734;2023-11-19T13:21:29;16.20;;;7.50;;
84084;SDS011;74175;41.730;44.734;2023-11-19T13:23:55;20.85;;;9.00;;
84084;SDS011;74175;41.730;44.734;2023-11-19T13:26:22;17.40;;;8.43;;
84084;SDS011;74175;41.730;44.734;2023-11-19T13:28:52;23.55;;;9.82;;
84084;SDS011;74175;41.730;44.734;2023-11-19T13:31:18;15.88;;;7.97;;
84084;SDS011;74175;41.730;44.734;2023-11-19T13:33:44;17.05;;;7.90;;
84084;SDS011;74175;41.730;44.734;2023-11-19T13:36:12;16.20;;;6.90;;
84084;SDS011;74175;41.730;44.734;2023-11-19T13:38:39;15.57;;;7.33;;
84084;SDS011;74175;41.730;44.734;2023-11-19T13:41:08;15.98;;;8.05;;
84084;SDS011;74175;41.730;44.734;2023-11-19T13:43:35;16.27;;;7.85;;
84084;SDS011;74175;41.730;44.734;2023-11-19T13:46:02;15.45;;;7.25;;
84084;SDS011;74175;41.730;44.734;2023-11-19T13:48:29;19.00;;;8.18;;
84084;SDS011;74175;41.730;44.734;2023-11-19T13:50:56;17.83;;;7.78;;
84084;SDS011;74175;41.730;44.734;2023-11-19T13:53:22;14.57;;;7.63;;
84084;SDS011;74175;41.730;44.734;2023-11-19T13:55:49;19.27;;;8.40;;
84084;SDS011;74175;41.730;44.734;2023-11-19T13:58:15;15.13;;;8.02;;
84084;SDS011;74175;41.730;44.734;2023-11-19T14:00:41;16.42;;;6.45;;
84084;SDS011;74175;41.730;44.734;2023-11-19T14:03:09;17.42;;;7.75;;
84084;SDS011;74175;41.730;44.734;2023-11-19T14:05:38;17.02;;;7.72;;
84084;SDS011;74175;41.730;44.734;2023-11-19T14:08:06;18.90;;;9.25;;
84084;SDS011;74175;41.730;44.734;2023-11-19T14:10:37;17.05;;;8.02;;
84084;SDS011;74175;41.730;44.734;2023-11-19T14:13:07;18.13;;;8.67;;
84084;SDS011;74175;41.730;44.734;2023-11-19T14:15:33;20.75;;;8.85;;
84084;SDS011;74175;41.730;44.734;2023-11-19T14:17:59;22.27;;;9.90;;
84084;SDS011;74175;41.730;44.734;2023-11-19T14:20:26;17.75;;;8.65;;
84084;SDS011;74175;41.730;44.734;2023-11-19T14:22:52;19.00;;;9.65;;
84084;SDS011;74175;41.730;44.734;2023-11-19T14:25:18;25.42;;;9.68;;
84084;SDS011;74175;41.730;44.734;2023-11-19T14:27:46;18.77;;;9.00;;
84084;SDS011;74175;41.730;44.734;2023-11-19T14:30:13;19.30;;;8.35;;
84084;SDS011;74175;41.730;44.734;2023-11-19T14:32:40;16.20;;;8.13;;
84084;SDS011;74175;41.730;44.734;2023-11-19T14:35:11;16.80;;;7.35;;
84084;SDS011;74175;41.730;44.734;2023-11-19T14:37:38;20.05;;;8.15;;
84084;SDS011;74175;41.730;44.734;2023-11-19T14:40:08;18.92;;;9.15;;
84084;SDS011;74175;41.730;44.734;2023-11-19T14:42:37;17.98;;;7.50;;
84084;SDS011;74175;41.730;44.734;2023-11-19T14:45:04;15.73;;;7.23;;
84084;SDS011;74175;41.730;44.734;2023-11-19T14:47:31;17.80;;;8.63;;
84084;SDS011;74175;41.730;44.734;2023-11-19T14:49:57;17.90;;;7.78;;
84084;SDS011;74175;41.730;44.734;2023-11-19T14:52:23;21.75;;;11.18;;
84084;SDS011;74175;41.730;44.734;2023-11-19T14:54:50;16.33;;;8.23;;
84084;SDS011;74175;41.730;44.734;2023-11-19T14:57:19;19.08;;;8.45;;
84084;SDS011;74175;41.730;44.734;2023-11-19T14:59:46;26.27;;;11.52;;